Weather at Martina Franca Air Force Base [CLOSED]

Public forecast

Using degrees Celsius for public forecast. Weather courtesy of forecast.io.

Closest aviation weather report (METAR) to Martina Franca Air Force Base

Closest report is Taranto-Grottaglie "Marcello Arlotta" Airport, 11.4 nm (21.1 km) SSE.

2024/05/20 05:55 (retrieved 1 hour ago)

LIBG 200555Z 13006KT 9999 FEW015 20/19 Q1011

Closest aviation forecast (TAF) to Martina Franca Air Force Base

Closest forecast is Brindisi Airport, 28.1 nm (52.0 km) E.

2024/05/20 06:22 (retrieved 34 minutes ago)

TAF LIBR 200500Z 2006/2106 VRB05KT 4000 BR BKN003 BECMG 2006/2008 8000 NSC BECMG 2008/2010 09010KT BECMG 2020/2022 16012KT